createdAt,value
2023-02-12T00:03:20.761Z,14.97
2023-02-12T00:07:24.472Z,12.37
2023-02-12T00:11:31.089Z,14.47
2023-02-12T00:21:11.029Z,12.47
2023-02-12T00:25:26.898Z,12.30
2023-02-12T00:29:31.819Z,13.37
2023-02-12T00:34:25.021Z,11.80
2023-02-12T00:38:28.888Z,14.67
2023-02-12T00:42:36.152Z,12.50
2023-02-12T00:46:41.123Z,10.67
2023-02-12T00:51:11.556Z,10.20
2023-02-12T00:55:17.280Z,12.47
2023-02-12T00:59:20.654Z,10.80
2023-02-12T01:03:39.798Z,10.70
2023-02-12T01:07:43.660Z,10.67
2023-02-12T01:11:47.205Z,12.47
2023-02-12T01:15:50.918Z,12.67
2023-02-12T01:20:09.074Z,15.27
2023-02-12T01:24:12.456Z,11.77
2023-02-12T01:28:21.191Z,10.03
2023-02-12T01:32:24.756Z,13.17
2023-02-12T01:36:33.678Z,13.93
2023-02-12T01:40:37.579Z,12.83
2023-02-12T01:44:46.784Z,16.53
2023-02-12T01:48:50.377Z,19.70
2023-02-12T01:53:06.728Z,13.83
2023-02-12T01:57:13.346Z,15.97
2023-02-12T02:01:40.242Z,13.10
2023-02-12T02:05:52.286Z,13.57
2023-02-12T02:09:57.932Z,9.37
2023-02-12T02:19:41.672Z,15.00
2023-02-12T02:24:37.838Z,10.50
2023-02-12T02:29:07.347Z,13.40
2023-02-12T02:33:50.421Z,16.43
2023-02-12T02:43:48.887Z,19.10
2023-02-12T02:47:57.219Z,18.80
2023-02-12T02:52:33.737Z,17.60
2023-02-12T03:11:35.435Z,22.87
2023-02-12T03:15:48.689Z,21.07
2023-02-12T03:24:40.270Z,23.80
2023-02-12T03:28:43.646Z,20.40
2023-02-12T03:33:01.214Z,24.97
2023-02-12T03:37:08.674Z,25.10
2023-02-12T03:41:23.041Z,28.43
2023-02-12T03:45:40.041Z,26.53
2023-02-12T03:49:48.533Z,22.93
2023-02-12T03:53:53.502Z,27.63
2023-02-12T03:58:30.735Z,24.17
2023-02-12T04:02:35.028Z,21.07
2023-02-12T04:06:39.121Z,28.90
2023-02-12T04:11:02.893Z,22.13
2023-02-12T04:15:28.883Z,19.00
2023-02-12T04:19:44.988Z,28.17
2023-02-12T04:24:04.598Z,20.93
2023-02-12T04:28:18.005Z,23.30
2023-02-12T04:32:36.485Z,20.67
2023-02-12T04:37:05.242Z,21.10
2023-02-12T04:41:09.955Z,17.07
2023-02-12T04:45:15.354Z,17.80
2023-02-12T04:49:23.789Z,17.97
2023-02-12T04:53:27.292Z,19.27
2023-02-12T04:57:30.756Z,18.93
2023-02-12T05:02:12.200Z,24.07
2023-02-12T05:06:45.273Z,15.90
2023-02-12T05:10:49.307Z,15.93
2023-02-12T05:14:52.711Z,19.83
2023-02-12T05:18:56.166Z,18.80
2023-02-12T05:23:01.102Z,18.27
2023-02-12T05:27:04.652Z,18.10
2023-02-12T05:31:10.384Z,15.53
2023-02-12T05:35:19.972Z,18.43
2023-02-12T05:39:24.798Z,18.23
2023-02-12T05:44:29.768Z,20.50
2023-02-12T05:48:34.762Z,18.80
2023-02-12T05:52:38.156Z,16.90
2023-02-12T05:56:57.293Z,26.07
2023-02-12T06:01:00.631Z,16.97
2023-02-12T06:05:54.655Z,21.97
2023-02-12T06:09:58.184Z,20.40
2023-02-12T06:14:05.102Z,17.43
2023-02-12T06:18:36.122Z,24.40
2023-02-12T06:22:47.029Z,17.20
2023-02-12T06:26:52.034Z,18.63
2023-02-12T06:30:56.953Z,15.23
2023-02-12T06:35:27.616Z,22.10
2023-02-12T06:39:31.110Z,19.80
2023-02-12T06:43:59.699Z,20.70
2023-02-12T06:48:04.479Z,21.03
2023-02-12T06:52:07.847Z,17.97
2023-02-12T06:56:20.888Z,15.57
2023-02-12T07:00:25.018Z,16.90
2023-02-12T07:04:29.966Z,15.03
2023-02-12T07:08:38.191Z,14.70
2023-02-12T07:12:41.778Z,14.50
2023-02-12T07:16:50.016Z,17.30
2023-02-12T07:20:57.495Z,18.73
2023-02-12T07:25:00.862Z,16.50
2023-02-12T07:29:04.428Z,18.90
2023-02-12T07:33:07.783Z,17.50
2023-02-12T07:37:29.067Z,16.60
2023-02-12T07:41:34.307Z,21.83
2023-02-12T07:46:16.927Z,19.73
2023-02-12T07:50:20.492Z,17.93
2023-02-12T07:54:27.416Z,21.10
2023-02-12T07:58:30.826Z,23.30
2023-02-12T08:02:34.389Z,23.50
2023-02-12T08:06:39.640Z,26.00
2023-02-12T08:10:44.851Z,20.10
2023-02-12T08:14:49.730Z,19.50
2023-02-12T08:18:54.199Z,18.83
2023-02-12T08:22:58.421Z,17.87
2023-02-12T08:27:15.665Z,20.67
2023-02-12T08:31:22.269Z,19.37
2023-02-12T08:36:26.699Z,19.07
2023-02-12T08:40:30.219Z,23.60
2023-02-12T08:44:40.915Z,24.77
2023-02-12T08:48:45.642Z,21.10
2023-02-12T08:53:50.244Z,21.53
2023-02-12T08:57:58.094Z,21.97
2023-02-12T09:03:08.151Z,22.70
2023-02-12T09:07:21.759Z,17.70
2023-02-12T09:11:38.151Z,23.97
2023-02-12T09:15:44.934Z,20.00
2023-02-12T09:20:13.896Z,21.77
2023-02-12T09:24:18.764Z,20.93
2023-02-12T09:28:47.885Z,30.63
2023-02-12T09:32:51.232Z,22.93
2023-02-12T09:37:58.154Z,20.30
2023-02-12T09:47:52.777Z,15.73
2023-02-12T09:51:57.108Z,19.37
2023-02-12T09:56:02.897Z,18.87
2023-02-12T10:04:32.021Z,14.97
2023-02-12T10:09:01.747Z,13.63
2023-02-12T10:13:07.220Z,14.87
2023-02-12T10:17:19.170Z,13.57
2023-02-12T10:21:59.681Z,12.67
2023-02-12T10:26:18.934Z,13.70
2023-02-12T10:30:25.563Z,10.67
2023-02-12T10:34:34.553Z,11.77
2023-02-12T10:38:52.749Z,14.03
2023-02-12T10:42:57.493Z,12.90
2023-02-12T10:47:01.243Z,10.97
2023-02-12T10:51:42.383Z,10.97
2023-02-12T10:55:45.841Z,11.90
2023-02-12T10:59:50.888Z,12.07
2023-02-12T11:03:59.919Z,8.33
2023-02-12T11:08:05.549Z,12.50
2023-02-12T11:12:35.946Z,10.00
2023-02-12T11:16:48.100Z,11.63
2023-02-12T11:20:53.285Z,13.87
2023-02-12T11:25:18.142Z,9.87
2023-02-12T11:29:24.862Z,11.10
2023-02-12T11:34:38.793Z,10.83
2023-02-12T11:39:18.328Z,14.40
2023-02-12T11:43:25.107Z,12.70
2023-02-12T11:53:45.721Z,8.53
2023-02-12T11:57:52.047Z,11.60
2023-02-12T12:02:17.558Z,9.40
2023-02-12T12:07:38.784Z,10.67
2023-02-12T12:12:01.572Z,9.83
2023-02-12T12:21:19.830Z,9.17
2023-02-12T12:25:28.326Z,11.70
2023-02-12T12:29:59.180Z,10.50
2023-02-12T12:34:18.908Z,11.10
2023-02-12T12:38:46.901Z,7.87
2023-02-12T12:43:02.780Z,9.53
2023-02-12T12:47:29.718Z,11.03
2023-02-12T12:51:57.357Z,9.83
2023-02-12T12:56:34.747Z,7.90
2023-02-12T13:01:01.570Z,4.37
2023-02-12T13:05:58.536Z,5.70
2023-02-12T13:10:26.718Z,7.93
2023-02-12T13:14:42.240Z,5.00
2023-02-12T13:19:04.739Z,6.00
2023-02-12T13:23:17.872Z,6.97
2023-02-12T13:27:26.332Z,5.77
2023-02-12T13:31:51.556Z,5.00
2023-02-12T13:36:00.687Z,10.00
2023-02-12T13:40:07.324Z,6.33
2023-02-12T13:44:21.721Z,4.97
2023-02-12T13:48:37.226Z,4.23
2023-02-12T13:52:54.243Z,8.10
2023-02-12T13:57:00.255Z,7.77
2023-02-12T14:01:08.031Z,6.07
2023-02-12T14:06:28.817Z,7.87
2023-02-12T14:10:36.591Z,7.57
2023-02-12T14:14:42.983Z,5.60
2023-02-12T14:19:32.236Z,4.20
2023-02-12T14:23:37.353Z,4.87
2023-02-12T14:27:47.641Z,6.17
2023-02-12T14:32:32.055Z,6.17
2023-02-12T14:36:49.348Z,5.43
2023-02-12T14:40:54.323Z,6.30
2023-02-12T14:45:29.814Z,10.33
2023-02-12T14:49:38.288Z,8.07
2023-02-12T14:54:16.941Z,6.23
2023-02-12T15:02:58.744Z,8.27
2023-02-12T15:55:36.608Z,6.60
2023-02-12T16:05:48.890Z,7.20
2023-02-12T16:09:55.111Z,8.23
2023-02-12T16:14:01.780Z,8.73
2023-02-12T16:18:07.915Z,9.17
2023-02-12T16:22:27.038Z,9.87
2023-02-12T16:27:46.626Z,11.60
2023-02-12T16:32:01.253Z,10.03
2023-02-12T16:36:07.070Z,7.53
2023-02-12T16:40:26.172Z,8.67
2023-02-12T16:44:31.698Z,11.20
2023-02-12T16:48:53.441Z,6.93
2023-02-12T16:53:01.406Z,7.73
2023-02-12T16:57:06.260Z,7.30
2023-02-12T17:01:21.513Z,9.87
2023-02-12T17:05:25.406Z,8.60
2023-02-12T17:15:42.907Z,7.73
2023-02-12T17:19:46.433Z,8.20
2023-02-12T17:24:24.102Z,7.07
2023-02-12T17:28:27.893Z,8.73
2023-02-12T17:32:46.026Z,8.97
2023-02-12T17:36:49.649Z,9.87
2023-02-12T17:40:54.762Z,8.03
2023-02-12T17:44:58.425Z,9.13
2023-02-12T17:49:05.994Z,8.07
2023-02-12T17:53:10.520Z,9.20
2023-02-12T17:57:15.081Z,8.47
2023-02-12T18:01:20.623Z,9.37
2023-02-12T18:05:25.845Z,8.00
2023-02-12T18:09:56.383Z,9.93
2023-02-12T18:13:59.961Z,9.70
2023-02-12T18:18:55.838Z,9.30
2023-02-12T18:23:00.557Z,7.93
2023-02-12T18:27:11.138Z,9.00
2023-02-12T18:31:15.191Z,7.90
2023-02-12T18:35:19.387Z,9.80
2023-02-12T18:39:52.715Z,8.90
2023-02-12T18:43:56.235Z,8.73
2023-02-12T18:48:01.623Z,8.73
2023-02-12T18:52:05.153Z,5.50
2023-02-12T18:56:14.437Z,9.73
2023-02-12T19:00:18.004Z,8.27
2023-02-12T19:05:12.097Z,10.13
2023-02-12T19:09:17.210Z,9.20
2023-02-12T19:13:25.843Z,7.83
2023-02-12T19:17:29.358Z,7.13
2023-02-12T19:22:03.655Z,9.97
2023-02-12T19:26:08.690Z,6.43
2023-02-12T19:30:14.464Z,6.30
2023-02-12T19:34:20.008Z,8.00
2023-02-12T19:38:34.254Z,8.43
2023-02-12T19:42:37.541Z,6.33
2023-02-12T19:46:43.768Z,7.07
2023-02-12T19:50:47.161Z,8.83
2023-02-12T19:55:28.487Z,6.23
2023-02-12T19:59:59.334Z,6.17
2023-02-12T20:04:04.947Z,7.53
2023-02-12T20:08:20.584Z,7.63
2023-02-12T20:12:24.011Z,6.67
2023-02-12T20:16:37.520Z,4.73
2023-02-12T20:20:42.843Z,9.47
2023-02-12T20:24:52.038Z,7.73
2023-02-12T20:28:56.752Z,7.43
2023-02-12T20:33:26.143Z,6.17
2023-02-12T20:37:30.912Z,7.77
2023-02-12T20:41:38.704Z,8.53
2023-02-12T20:45:42.043Z,9.47
2023-02-12T20:49:46.394Z,8.73
2023-02-12T20:53:52.095Z,8.27
2023-02-12T20:57:55.542Z,9.30
2023-02-12T21:02:04.531Z,9.30
2023-02-12T21:06:08.611Z,7.80
2023-02-12T21:10:38.482Z,14.87
2023-02-12T21:14:41.795Z,13.57
2023-02-12T21:18:50.094Z,11.63
2023-02-12T21:22:53.360Z,9.83
2023-02-12T21:26:58.292Z,11.23
2023-02-12T21:31:08.982Z,11.00
2023-02-12T21:35:12.467Z,8.90
2023-02-12T21:39:26.402Z,10.57
2023-02-12T21:43:48.986Z,10.13
2023-02-12T21:47:52.704Z,9.20
2023-02-12T21:52:25.385Z,7.20
2023-02-12T21:56:29.172Z,7.70
2023-02-12T22:00:34.085Z,11.47
2023-02-12T22:04:38.673Z,6.97
2023-02-12T22:08:42.227Z,5.23
2023-02-12T22:12:45.791Z,8.23
2023-02-12T22:16:50.787Z,5.40
2023-02-12T22:22:01.026Z,9.13
2023-02-12T22:26:08.782Z,7.93
2023-02-12T22:30:39.743Z,4.30
2023-02-12T22:34:44.424Z,8.47
2023-02-12T22:39:14.989Z,10.37
2023-02-12T22:43:18.352Z,7.40
2023-02-12T22:47:24.489Z,5.53
2023-02-12T22:51:31.154Z,4.23
2023-02-12T22:55:39.459Z,4.93
2023-02-12T22:59:42.948Z,5.50
2023-02-12T23:03:47.039Z,7.00
2023-02-12T23:07:53.117Z,3.93
2023-02-12T23:11:56.587Z,4.53
2023-02-12T23:16:18.339Z,5.60
2023-02-12T23:20:21.830Z,5.93
2023-02-12T23:24:57.644Z,4.33
2023-02-12T23:29:01.208Z,4.70
2023-02-12T23:34:21.643Z,4.97
2023-02-12T23:38:25.022Z,3.97
2023-02-12T23:42:33.951Z,4.87
2023-02-12T23:46:37.589Z,6.67
2023-02-12T23:50:41.306Z,6.13
2023-02-12T23:54:44.664Z,5.43
2023-02-12T23:58:49.371Z,4.00
